Time;durP1;ratioP1;P1;durP2;ratioP2;P2;SDS_P1;SDS_P2;PMS_P1;PMS_P2;Temp;Humidity;BMP_temperature;BMP_pressure;BME280_temperature;BME280_humidity;BME280_pressure;Samples;Min_cycle;Max_cycle;Signal;HPM_P1;HPM_P2
2022/05/11 00:01:20;;;;;;;13.38;8.40;;;17.50;1.00;;;;;;5075651;28;20742;-89
2022/05/11 00:03:48;;;;;;;11.98;9.00;;;17.40;1.00;;;;;;5092666;28;20208;-87
2022/05/11 00:06:15;;;;;;;12.80;8.05;;;17.50;1.00;;;;;;5093568;28;20236;-87
2022/05/11 00:08:43;;;;;;;10.73;8.75;;;17.40;1.00;;;;;;5101660;28;20199;-87
2022/05/11 00:11:10;;;;;;;12.60;8.52;;;17.50;1.00;;;;;;5113682;28;20271;-91
2022/05/11 00:13:38;;;;;;;18.25;7.60;;;17.50;1.00;;;;;;5113806;28;20204;-86
2022/05/11 00:16:07;;;;;;;12.15;7.30;;;17.50;1.00;;;;;;5114020;28;20304;-87
2022/05/11 00:18:34;;;;;;;8.20;6.07;;;17.40;1.00;;;;;;5113311;28;20196;-88
2022/05/11 00:21:02;;;;;;;8.20;5.95;;;17.40;1.00;;;;;;5112930;28;20285;-88
2022/05/11 00:23:29;;;;;;;8.25;5.45;;;17.50;1.00;;;;;;5093246;28;20714;-86
2022/05/11 00:25:56;;;;;;;9.63;5.63;;;17.60;1.00;;;;;;5092712;28;20279;-89
2022/05/11 00:28:23;;;;;;;8.48;6.13;;;17.70;1.00;;;;;;5093173;28;20197;-88
2022/05/11 00:30:51;;;;;;;10.85;6.07;;;17.80;1.00;;;;;;5105748;28;20197;-89
2022/05/11 00:33:20;;;;;;;7.80;5.50;;;17.80;1.00;;;;;;5113639;28;20271;-88
2022/05/11 00:35:49;;;;;;;7.75;5.60;;;17.90;1.00;;;;;;5113055;28;20562;-88
2022/05/11 00:38:18;;;;;;;8.73;6.05;;;17.90;1.00;;;;;;5108803;28;20194;-87
2022/05/11 00:40:48;;;;;;;9.80;6.40;;;18.00;1.00;;;;;;5092892;28;20206;-88
2022/05/11 00:43:25;;;;;;;7.85;5.80;;;18.00;1.00;;;;;;5093026;28;20229;-89
2022/05/11 00:45:52;;;;;;;12.85;5.60;;;18.00;1.00;;;;;;5092924;28;20201;-87
2022/05/11 00:51:12;;;;;;;7.93;5.90;;;17.90;1.00;;;;;;5093759;28;20174;-86
2022/05/11 00:53:41;;;;;;;8.00;5.95;;;17.90;1.00;;;;;;5112537;28;20294;-88
2022/05/11 00:56:08;;;;;;;9.25;6.20;;;17.90;1.00;;;;;;5113183;28;20228;-90
2022/05/11 00:58:41;;;;;;;11.38;6.07;;;17.90;1.00;;;;;;5112736;28;20556;-87
2022/05/11 01:01:09;;;;;;;7.10;6.03;;;17.80;1.00;;;;;;5113021;28;20208;-90
2022/05/11 01:03:43;;;;;;;8.02;6.07;;;17.80;1.00;;;;;;5112985;28;20200;-87
2022/05/11 01:06:11;;;;;;;9.30;5.82;;;17.80;1.00;;;;;;5113062;28;20233;-89
2022/05/11 01:08:40;;;;;;;7.90;5.88;;;17.80;1.00;;;;;;5102546;28;20201;-88
2022/05/11 01:11:08;;;;;;;7.57;5.70;;;17.80;1.00;;;;;;5092709;28;20204;-85
2022/05/11 01:13:38;;;;;;;9.65;6.00;;;17.80;1.00;;;;;;5091960;28;20230;-90
2022/05/11 01:16:06;;;;;;;10.48;5.68;;;17.70;1.00;;;;;;5095066;28;20655;-90
2022/05/11 01:18:33;;;;;;;9.50;6.00;;;17.70;1.00;;;;;;5096602;28;20701;-88
2022/05/11 01:21:05;;;;;;;11.75;5.95;;;17.60;1.00;;;;;;5096652;28;20213;-90
2022/05/11 01:23:37;;;;;;;8.80;6.15;;;17.70;1.00;;;;;;5096640;28;20210;-90
2022/05/11 01:26:06;;;;;;;8.32;5.97;;;17.60;1.00;;;;;;5096753;28;20224;-87
2022/05/11 01:28:33;;;;;;;9.07;6.50;;;17.60;1.00;;;;;;5096563;28;20201;-88
2022/05/11 01:31:07;;;;;;;6.90;6.20;;;17.60;1.00;;;;;;5096580;28;20195;-87
2022/05/11 01:33:37;;;;;;;8.48;6.82;;;17.60;1.00;;;;;;5096522;28;20199;-91
2022/05/11 01:36:16;;;;;;;8.38;6.05;;;17.50;1.00;;;;;;5096744;28;20205;-87
2022/05/11 01:38:46;;;;;;;8.35;6.32;;;17.50;1.00;;;;;;5096366;28;20205;-88
2022/05/11 01:41:18;;;;;;;6.88;5.88;;;17.40;1.00;;;;;;5096243;28;20634;-90
2022/05/11 01:43:45;;;;;;;7.80;6.47;;;17.30;1.00;;;;;;5096317;28;20180;-90
2022/05/11 01:46:13;;;;;;;7.97;6.53;;;17.30;1.00;;;;;;5095951;28;20568;-87
2022/05/11 01:48:41;;;;;;;11.32;7.30;;;17.30;1.00;;;;;;5096762;28;20607;-89
2022/05/11 01:51:08;;;;;;;9.25;6.80;;;17.20;1.00;;;;;;5095515;28;20564;-90
2022/05/11 01:53:35;;;;;;;8.07;6.83;;;17.20;1.00;;;;;;5095377;28;20304;-86
2022/05/11 01:56:03;;;;;;;8.73;6.40;;;17.20;1.00;;;;;;5098577;28;20198;-88
2022/05/11 01:58:32;;;;;;;10.98;7.15;;;17.20;1.00;;;;;;5116394;28;20202;-89
2022/05/11 02:01:00;;;;;;;8.30;6.67;;;17.20;1.00;;;;;;5116406;28;20262;-87
2022/05/11 02:03:27;;;;;;;9.75;6.90;;;17.20;1.00;;;;;;5115757;28;20577;-87
2022/05/11 02:08:43;;;;;;;8.82;7.72;;;17.10;59.30;;;;;;5115920;28;20281;-88
2022/05/11 02:11:13;;;;;;;10.53;7.40;;;17.10;99.90;;;;;;5115861;28;20224;-88
2022/05/11 02:13:43;;;;;;;12.03;8.30;;;17.10;99.90;;;;;;5115905;28;20220;-87
2022/05/11 02:16:10;;;;;;;11.20;7.55;;;17.00;99.90;;;;;;5115886;28;20654;-88
2022/05/11 02:18:37;;;;;;;12.20;8.03;;;17.00;99.90;;;;;;5116125;28;20748;-89
2022/05/11 02:21:05;;;;;;;11.73;8.50;;;16.90;99.90;;;;;;5115946;28;20203;-86
2022/05/11 02:23:32;;;;;;;10.67;8.30;;;16.80;99.90;;;;;;5115968;28;20202;-88
2022/05/11 02:26:15;;;;;;;10.83;8.97;;;16.80;99.90;;;;;;5122612;28;20198;-85
2022/05/11 02:29:06;;;;;;;11.17;8.83;;;16.80;1.00;;;;;;5139056;28;20184;-89
2022/05/11 02:31:58;;;;;;;11.33;8.60;;;16.70;1.00;;;;;;5106118;28;20228;-89
2022/05/11 02:37:28;;;;;;;11.13;8.90;;;16.60;1.00;;;;;;5139675;28;20180;-88
2022/05/11 02:40:10;;;;;;;9.50;8.50;;;16.50;1.00;;;;;;5139816;28;20250;-89
2022/05/11 02:43:01;;;;;;;10.73;8.93;;;16.50;1.00;;;;;;5139509;28;20197;-88
2022/05/11 02:45:41;;;;;;;12.30;8.70;;;16.50;1.00;;;;;;5139531;28;20570;-88
2022/05/11 02:48:23;;;;;;;12.83;9.17;;;16.40;1.00;;;;;;5139354;28;20200;-86
2022/05/11 02:51:09;;;;;;;13.37;9.07;;;16.40;1.00;;;;;;5139634;28;20207;-86
2022/05/11 02:56:41;;;;;;;12.57;9.10;;;16.30;1.00;;;;;;5128098;28;20205;-91
2022/05/11 02:59:20;;;;;;;12.00;8.63;;;16.30;1.00;;;;;;5119176;28;20191;-87
2022/05/11 03:02:01;;;;;;;10.27;8.13;;;16.30;1.00;;;;;;5118878;28;20182;-88
2022/05/11 03:04:39;;;;;;;9.87;7.90;;;16.30;1.00;;;;;;5119506;28;20182;-91
2022/05/11 03:07:15;;;;;;;12.73;8.83;;;16.30;1.00;;;;;;5118468;28;20229;-88
2022/05/11 03:09:56;;;;;;;11.47;8.00;;;16.20;1.00;;;;;;5118356;28;20194;-91
2022/05/11 03:12:39;;;;;;;11.33;7.90;;;16.20;1.00;;;;;;5118290;28;20229;-88
2022/05/11 03:15:16;;;;;;;9.77;8.27;;;16.20;1.00;;;;;;5118452;28;20187;-88
2022/05/11 03:17:50;;;;;;;9.60;8.60;;;16.20;1.00;;;;;;5118641;28;20192;-87
2022/05/11 03:20:32;;;;;;;10.40;8.10;;;16.30;1.00;;;;;;5118340;28;20257;-89
2022/05/11 03:26:39;;;;;;;11.67;8.30;;;16.30;1.00;;;;;;5126693;28;20169;-88
2022/05/11 03:29:14;;;;;;;11.13;7.77;;;16.30;1.00;;;;;;5124225;28;20203;-89
2022/05/11 03:34:38;;;;;;;11.53;8.03;;;16.20;1.00;;;;;;5093831;28;20176;-85
2022/05/11 03:37:06;;;;;;;9.87;7.70;;;16.10;1.00;;;;;;5094006;28;20268;-84
2022/05/11 03:39:33;;;;;;;9.83;7.70;;;16.20;1.00;;;;;;5093730;28;20230;-85
2022/05/11 03:42:00;;;;;;;8.80;7.70;;;16.20;1.00;;;;;;5094092;28;20190;-84
2022/05/11 03:44:28;;;;;;;12.90;7.67;;;16.20;1.00;;;;;;5093802;28;20226;-84
2022/05/11 03:46:55;;;;;;;8.67;7.73;;;16.20;1.00;;;;;;5095837;28;20207;-84
2022/05/11 03:49:23;;;;;;;7.57;6.43;;;16.20;1.00;;;;;;5093747;28;20227;-84
2022/05/11 03:51:52;;;;;;;9.27;7.07;;;16.20;1.00;;;;;;5095204;28;20194;-85
2022/05/11 03:54:19;;;;;;;9.67;6.43;;;16.10;1.00;;;;;;5094910;28;20289;-84
2022/05/11 03:56:46;;;;;;;8.97;6.33;;;16.10;1.00;;;;;;5106651;28;20195;-85
2022/05/11 03:59:13;;;;;;;12.93;10.30;;;16.10;1.00;;;;;;5117646;28;20179;-83
2022/05/11 04:01:44;;;;;;;7.90;6.50;;;16.10;1.00;;;;;;5119052;28;20190;-88
2022/05/11 04:04:11;;;;;;;8.87;6.40;;;16.10;1.00;;;;;;5115934;28;20251;-84
2022/05/11 04:06:37;;;;;;;9.07;5.93;;;16.10;1.00;;;;;;5113689;28;20224;-84
2022/05/11 04:09:06;;;;;;;7.83;6.00;;;16.10;1.00;;;;;;5114381;28;20229;-82
2022/05/11 04:11:34;;;;;;;6.87;6.17;;;16.20;1.00;;;;;;5113534;28;20232;-82
2022/05/11 04:14:00;;;;;;;8.00;5.90;;;16.20;1.00;;;;;;5125103;28;20259;-81
2022/05/11 04:16:27;;;;;;;7.18;6.25;;;16.30;1.00;;;;;;5116225;28;20737;-85
2022/05/11 04:18:55;;;;;;;6.73;5.67;;;16.30;1.00;;;;;;5133461;28;20198;-87
2022/05/11 04:21:29;;;;;;;8.47;6.73;;;16.40;1.00;;;;;;5137199;28;20194;-87
2022/05/11 04:24:03;;;;;;;7.87;5.80;;;16.40;1.00;;;;;;5137588;28;20217;-88
2022/05/11 04:26:35;;;;;;;6.90;6.13;;;16.50;1.00;;;;;;5125545;28;20196;-86
2022/05/11 04:29:06;;;;;;;9.20;5.73;;;16.50;1.00;;;;;;5117056;28;20198;-87
2022/05/11 04:31:34;;;;;;;8.50;6.60;;;16.50;1.00;;;;;;5116733;28;20193;-86
2022/05/11 04:34:01;;;;;;;7.43;5.93;;;16.60;1.00;;;;;;5098131;28;20301;-82
2022/05/11 04:36:30;;;;;;;8.15;5.80;;;16.60;1.00;;;;;;5092529;28;20234;-83
2022/05/11 04:38:57;;;;;;;6.63;5.82;;;16.60;1.00;;;;;;5092719;28;20250;-84
2022/05/11 04:41:24;;;;;;;9.13;5.68;;;16.60;1.00;;;;;;5092458;28;20719;-82
2022/05/11 04:43:52;;;;;;;12.18;5.70;;;16.60;1.00;;;;;;5108100;28;20229;-82
2022/05/11 04:46:19;;;;;;;9.07;5.68;;;16.70;1.00;;;;;;5103434;28;20649;-82
2022/05/11 04:48:46;;;;;;;12.93;5.80;;;16.70;1.00;;;;;;5094801;28;20250;-82
2022/05/11 04:51:13;;;;;;;10.40;5.93;;;16.80;1.00;;;;;;5100638;28;20238;-83
2022/05/11 04:53:40;;;;;;;10.88;6.20;;;16.80;1.00;;;;;;5112274;28;20689;-82
2022/05/11 04:56:07;;;;;;;12.88;5.68;;;16.90;1.00;;;;;;5114485;28;20192;-82
2022/05/11 04:58:34;;;;;;;9.23;5.38;;;17.00;1.00;;;;;;5116831;28;20645;-83
2022/05/11 05:01:02;;;;;;;9.20;5.60;;;17.00;1.00;;;;;;5113123;28;20195;-82
2022/05/11 05:03:32;;;;;;;9.73;6.43;;;17.10;1.00;;;;;;5114754;28;20196;-86
2022/05/11 05:05:59;;;;;;;9.93;5.97;;;17.20;1.00;;;;;;5113094;28;20326;-80
2022/05/11 05:08:31;;;;;;;13.00;6.25;;;17.20;1.00;;;;;;5116705;28;20202;-87
2022/05/11 05:10:58;;;;;;;9.23;6.75;;;17.30;1.00;;;;;;5136444;28;20230;-85
2022/05/11 05:13:26;;;;;;;10.93;7.00;;;17.30;1.00;;;;;;5136154;28;20212;-86
2022/05/11 05:16:02;;;;;;;12.90;7.68;;;17.30;1.00;;;;;;5131802;28;20199;-85
2022/05/11 05:18:36;;;;;;;12.25;8.48;;;17.30;1.00;;;;;;5128617;28;20174;-84
2022/05/11 05:21:09;;;;;;;24.35;17.65;;;17.30;1.00;;;;;;5114979;28;20220;-87
2022/05/11 05:23:37;;;;;;;93.72;48.05;;;17.30;1.00;;;;;;5133365;28;20204;-85
2022/05/11 05:26:04;;;;;;;167.10;68.95;;;17.30;1.00;;;;;;5128794;28;20198;-83
2022/05/11 05:31:18;;;;;;;121.95;54.78;;;17.40;1.00;;;;;;5114102;28;20263;-84
2022/05/11 05:33:46;;;;;;;215.45;88.90;;;17.40;1.00;;;;;;5114160;28;20649;-84
2022/05/11 05:36:13;;;;;;;106.57;45.60;;;17.40;1.00;;;;;;5116028;28;20236;-84
2022/05/11 05:38:42;;;;;;;11.48;8.02;;;17.50;1.00;;;;;;5112567;28;20232;-82
2022/05/11 05:41:11;;;;;;;37.85;24.65;;;17.70;1.00;;;;;;5112411;28;20187;-84
2022/05/11 05:43:38;;;;;;;159.93;78.88;;;17.80;1.00;;;;;;5112581;28;20223;-82
2022/05/11 05:46:11;;;;;;;30.92;16.67;;;18.00;1.00;;;;;;5101845;28;20271;-84
2022/05/11 05:48:49;;;;;;;40.97;22.63;;;18.10;1.00;;;;;;5111450;28;20265;-84
2022/05/11 05:51:18;;;;;;;77.60;45.22;;;18.30;1.00;;;;;;5114714;28;20190;-82
2022/05/11 05:53:46;;;;;;;55.03;30.48;;;18.40;1.00;;;;;;5112087;28;20268;-84
2022/05/11 05:56:14;;;;;;;66.20;40.70;;;18.50;1.00;;;;;;5114044;28;20192;-84
2022/05/11 05:58:44;;;;;;;32.55;21.15;;;18.70;1.00;;;;;;5115098;28;20194;-85
2022/05/11 06:01:11;;;;;;;37.15;25.67;;;18.80;1.00;;;;;;5112271;28;20416;-83
2022/05/11 06:03:39;;;;;;;22.60;16.80;;;19.00;1.00;;;;;;5115985;28;20290;-83
2022/05/11 06:06:09;;;;;;;18.48;12.20;;;19.20;99.90;;;;;;5119294;28;20191;-85
2022/05/11 06:08:37;;;;;;;18.63;13.65;;;19.30;99.90;;;;;;5116325;28;20222;-83
2022/05/11 06:11:05;;;;;;;24.42;15.18;;;19.30;99.90;;;;;;5116303;28;20234;-83
2022/05/11 06:13:32;;;;;;;23.05;13.63;;;19.20;99.90;;;;;;5115904;28;20222;-82
2022/05/11 06:15:59;;;;;;;16.95;10.73;;;19.30;99.90;;;;;;5114991;28;20191;-83
2022/05/11 06:18:27;;;;;;;13.15;9.43;;;19.20;99.90;;;;;;5117199;28;20624;-84
2022/05/11 06:20:55;;;;;;;11.73;8.20;;;19.20;99.90;;;;;;5120391;28;20295;-85
2022/05/11 06:23:23;;;;;;;13.27;8.27;;;19.10;99.90;;;;;;5120579;28;20651;-85
2022/05/11 06:25:50;;;;;;;12.75;9.40;;;19.00;99.90;;;;;;5125206;28;20194;-82
2022/05/11 06:28:18;;;;;;;10.85;8.05;;;19.00;99.90;;;;;;5115233;28;20278;-83
2022/05/11 06:30:47;;;;;;;9.55;8.23;;;19.00;99.90;;;;;;5122810;28;20191;-87
2022/05/11 06:33:14;;;;;;;14.07;11.00;;;19.00;99.90;;;;;;5123806;28;20206;-84
2022/05/11 06:35:41;;;;;;;18.77;12.15;;;18.90;99.90;;;;;;5116280;28;20239;-84
2022/05/11 06:38:15;;;;;;;13.60;11.23;;;18.90;99.90;;;;;;5125867;28;20257;-86
2022/05/11 06:40:43;;;;;;;15.52;10.60;;;18.90;99.90;;;;;;5117850;28;20241;-84
2022/05/11 06:43:10;;;;;;;9.60;8.48;;;19.00;99.90;;;;;;5116250;28;20286;-84
2022/05/11 06:45:37;;;;;;;15.85;9.98;;;19.10;99.90;;;;;;5106871;28;20271;-82
2022/05/11 06:48:04;;;;;;;12.48;10.70;;;19.20;99.90;;;;;;5103583;28;20243;-83
2022/05/11 06:50:31;;;;;;;8.98;7.32;;;19.30;99.90;;;;;;5101283;28;20219;-83
2022/05/11 06:52:58;;;;;;;8.10;6.03;;;19.40;99.90;;;;;;5100809;28;20227;-85
2022/05/11 07:01:03;;;;;;;9.10;7.57;;;19.40;99.90;;;;;;5037878;28;20186;-84
2022/05/11 07:03:30;;;;;;;9.65;7.57;;;19.30;99.90;;;;;;5059078;28;20225;-84
2022/05/11 07:06:06;;;;;;;9.18;7.32;;;19.40;99.90;;;;;;5089867;28;20227;-86
2022/05/11 07:08:38;;;;;;;8.45;6.10;;;19.40;99.90;;;;;;5100276;28;20644;-85
2022/05/11 07:13:51;;;;;;;8.40;6.47;;;19.50;99.90;;;;;;5102795;28;20206;-86
2022/05/11 07:16:18;;;;;;;9.40;6.38;;;19.50;99.90;;;;;;5114335;28;20191;-84
2022/05/11 07:19:04;;;;;;;7.55;6.30;;;19.50;99.90;;;;;;5123073;28;20286;-84
2022/05/11 07:21:31;;;;;;;6.78;6.03;;;19.50;99.90;;;;;;5122302;28;20205;-84
2022/05/11 07:23:58;;;;;;;7.70;6.90;;;19.60;99.90;;;;;;5123522;28;20327;-84
2022/05/11 07:26:27;;;;;;;12.23;7.57;;;19.60;99.90;;;;;;5120845;28;20277;-85
2022/05/11 07:28:55;;;;;;;9.20;7.13;;;19.70;99.90;;;;;;5121474;28;20214;-82
2022/05/11 07:31:22;;;;;;;10.20;7.55;;;19.70;99.90;;;;;;5122588;28;20191;-85
2022/05/11 07:33:49;;;;;;;10.85;7.35;;;19.80;99.90;;;;;;5122264;28;20215;-85
2022/05/11 07:36:15;;;;;;;11.02;7.47;;;19.80;99.90;;;;;;5121772;28;20656;-85
2022/05/11 07:38:47;;;;;;;10.52;6.22;;;19.80;99.90;;;;;;5121841;28;20216;-87
2022/05/11 07:41:14;;;;;;;11.73;6.57;;;19.90;99.90;;;;;;5121604;28;20182;-83
2022/05/11 07:43:41;;;;;;;9.05;7.43;;;20.10;99.90;;;;;;5121116;28;20617;-83
2022/05/11 07:46:18;;;;;;;10.98;7.22;;;20.10;99.90;;;;;;5120274;28;20194;-82
2022/05/11 07:48:47;;;;;;;15.00;10.15;;;20.20;99.90;;;;;;5117122;28;20267;-83
2022/05/11 07:51:14;;;;;;;9.85;7.18;;;20.20;99.90;;;;;;5119167;28;20213;-83
2022/05/11 07:53:49;;;;;;;9.63;8.13;;;20.20;99.90;;;;;;5116619;28;20321;-85
2022/05/11 08:01:46;;;;;;;9.82;8.82;;;20.10;99.90;;;;;;5121714;28;20178;-83
2022/05/11 08:04:13;;;;;;;9.43;7.82;;;20.20;99.90;;;;;;5121962;28;20202;-82
2022/05/11 08:07:13;;;;;;;12.80;8.50;;;20.20;99.90;;;;;;5120724;28;20281;-84
2022/05/11 08:09:44;;;;;;;12.13;8.50;;;20.10;99.90;;;;;;5122799;28;20186;-86
2022/05/11 08:12:11;;;;;;;14.27;9.85;;;20.10;99.90;;;;;;5119883;28;20234;-85
2022/05/11 08:14:38;;;;;;;12.38;9.98;;;19.90;99.90;;;;;;5110712;28;20215;-84
2022/05/11 08:17:06;;;;;;;10.60;8.40;;;19.90;99.90;;;;;;5103869;28;20584;-83
2022/05/11 08:19:33;;;;;;;9.55;8.25;;;19.80;99.90;;;;;;5113558;28;20230;-83
2022/05/11 08:22:00;;;;;;;12.70;8.32;;;19.80;99.90;;;;;;5116473;28;20197;-84
2022/05/11 08:24:27;;;;;;;12.90;8.63;;;19.90;99.90;;;;;;5116386;28;20281;-85
2022/05/11 08:26:54;;;;;;;9.27;7.85;;;19.90;99.90;;;;;;5114188;28;20193;-83
2022/05/11 08:34:53;;;;;;;12.38;8.32;;;19.90;99.90;;;;;;5119268;28;20283;-85
2022/05/11 08:37:25;;;;;;;8.40;7.50;;;19.90;99.90;;;;;;5120886;28;20191;-90
2022/05/11 08:39:52;;;;;;;9.50;8.18;;;20.00;99.90;;;;;;5117659;28;20221;-83
2022/05/11 08:42:19;;;;;;;11.52;7.93;;;20.10;99.90;;;;;;5115321;28;20684;-84
2022/05/11 08:44:50;;;;;;;9.80;8.35;;;20.20;99.90;;;;;;5116146;28;20231;-88
2022/05/11 08:47:31;;;;;;;11.05;9.00;;;20.20;99.90;;;;;;5098330;28;20640;-85
2022/05/11 08:50:11;;;;;;;9.15;8.15;;;20.30;99.90;;;;;;5098912;28;20267;-83
2022/05/11 08:52:47;;;;;;;9.00;7.80;;;20.40;99.90;;;;;;5097051;28;20243;-83
2022/05/11 08:55:28;;;;;;;14.63;8.05;;;20.50;99.90;;;;;;5101644;28;20061;-87
2022/05/11 08:57:56;;;;;;;11.18;6.97;;;20.60;99.90;;;;;;5101115;28;20187;-85
2022/05/11 09:00:24;;;;;;;13.13;7.15;;;20.70;99.90;;;;;;5097764;28;20282;-85
2022/05/11 09:02:53;;;;;;;;;;;20.80;99.90;;;;;;5096075;28;20206;-83
2022/05/11 09:05:23;;;;;;;10.60;7.00;;;21.00;99.90;;;;;;5099945;28;20548;-86
2022/05/11 09:07:54;;;;;;;;;;;21.30;99.90;;;;;;5101252;28;19915;-87
2022/05/11 09:10:26;;;;;;;;;;;21.70;99.90;;;;;;5093807;28;20100;-85
2022/05/11 09:12:55;;;;;;;9.18;6.53;;;22.10;99.90;;;;;;5099188;28;20406;-82
2022/05/11 09:15:22;;;;;;;7.05;5.60;;;22.50;73.20;;;;;;5101879;28;20631;-83
2022/05/11 09:17:49;;;;;;;6.80;6.00;;;22.80;1.00;;;;;;5112873;28;20281;-82
2022/05/11 09:20:20;;;;;;;10.05;5.25;;;23.00;1.00;;;;;;5112839;28;20211;-82
2022/05/11 09:22:59;;;;;;;9.82;5.63;;;23.30;1.00;;;;;;5115604;28;20639;-86
2022/05/11 09:25:29;;;;;;;5.85;5.03;;;23.40;1.00;;;;;;5114087;28;20218;-84
2022/05/11 09:28:13;;;;;;;;;;;23.50;1.00;;;;;;5116053;28;20183;-83
2022/05/11 09:30:42;;;;;;;;;;;23.60;1.00;;;;;;5118766;28;20002;-88
2022/05/11 09:33:18;;;;;;;7.82;4.70;;;23.90;1.00;;;;;;5118689;28;20199;-83
2022/05/11 09:35:47;;;;;;;9.55;4.40;;;24.30;1.00;;;;;;5117258;28;20326;-84
2022/05/11 09:38:33;;;;;;;4.15;3.40;;;24.50;1.00;;;;;;5119456;28;20222;-84
2022/05/11 09:41:02;;;;;;;6.25;3.20;;;24.80;1.00;;;;;;5120881;28;20274;-82
2022/05/11 09:43:34;;;;;;;4.53;3.00;;;25.20;1.00;;;;;;5121413;28;20206;-83
2022/05/11 09:46:01;;;;;;;5.18;3.75;;;25.60;1.00;;;;;;5103042;28;20693;-83
2022/05/11 09:48:31;;;;;;;15.63;10.68;;;25.70;1.00;;;;;;5101336;28;20223;-84
2022/05/11 09:51:19;;;;;;;5.88;4.88;;;25.90;1.00;;;;;;5099583;28;20188;-85
2022/05/11 09:53:52;;;;;;;5.57;4.40;;;26.00;1.00;;;;;;5099697;28;20226;-83
2022/05/11 09:56:23;;;;;;;5.20;3.92;;;26.00;1.00;;;;;;5096560;28;20210;-85
2022/05/11 09:58:50;;;;;;;3.95;3.53;;;26.00;1.00;;;;;;5099778;28;20216;-85
2022/05/11 10:01:26;;;;;;;6.90;3.50;;;26.00;1.00;;;;;;5100554;28;20199;-86
2022/05/11 10:04:01;;;;;;;6.55;3.53;;;26.00;1.00;;;;;;5098504;28;20199;-88
2022/05/11 10:06:43;;;;;;;4.53;3.08;;;26.00;1.00;;;;;;5099850;28;20207;-85
2022/05/11 10:09:21;;;;;;;6.63;3.92;;;26.10;1.00;;;;;;5100399;28;20194;-86
2022/05/11 10:11:50;;;;;;;6.43;3.92;;;26.10;1.00;;;;;;5099214;28;20179;-86
2022/05/11 10:22:49;;;;;;;6.45;3.33;;;25.90;1.00;;;;;;5103472;28;20249;-85
2022/05/11 10:25:19;;;;;;;4.80;3.47;;;26.00;1.00;;;;;;5109941;28;20646;-84
2022/05/11 10:27:48;;;;;;;4.65;3.00;;;26.20;1.00;;;;;;5117151;28;20274;-84
2022/05/11 10:30:21;;;;;;;8.35;3.40;;;26.30;1.00;;;;;;5115880;28;20248;-85
2022/05/11 10:33:21;;;;;;;7.47;3.45;;;26.30;1.00;;;;;;5122494;28;20179;-83
2022/05/11 10:35:59;;;;;;;6.38;3.00;;;26.20;1.00;;;;;;5119028;28;20219;-84
2022/05/11 10:38:48;;;;;;;6.45;3.30;;;26.20;1.00;;;;;;5121474;28;20615;-88
2022/05/11 10:41:29;;;;;;;5.13;3.53;;;26.10;1.00;;;;;;5101227;28;20188;-86
2022/05/11 10:44:08;;;;;;;6.28;3.40;;;26.00;1.00;;;;;;5100126;28;20207;-87
2022/05/11 10:46:37;;;;;;;9.27;4.88;;;25.90;1.00;;;;;;5101426;28;20174;-86
2022/05/11 10:49:34;;;;;;;6.85;3.40;;;25.90;1.00;;;;;;5095431;28;20282;-86
2022/05/11 10:52:24;;;;;;;6.53;3.63;;;26.00;1.00;;;;;;5098286;28;20184;-83
2022/05/11 10:55:03;;;;;;;4.13;3.58;;;26.20;1.00;;;;;;5109264;28;20227;-85
2022/05/11 10:57:41;;;;;;;11.38;4.38;;;26.50;1.00;;;;;;5122515;28;20186;-85
2022/05/11 11:00:12;;;;;;;7.13;4.10;;;26.60;1.00;;;;;;5117700;28;20183;-87
2022/05/11 11:03:07;;;;;;;6.25;4.70;;;26.70;1.00;;;;;;5119666;28;20262;-86
2022/05/11 11:07:11;;;;;;;4.57;3.80;;;26.80;1.00;;;;;;5119641;28;20277;-86
2022/05/11 11:08:46;;;;;;;8.27;4.00;;;26.80;1.00;;;;;;5119080;28;20194;-86
2022/05/11 11:11:21;;;;;;;10.50;4.10;;;26.90;1.00;;;;;;5116967;28;20214;-82
2022/05/11 11:14:00;;;;;;;4.82;3.85;;;27.00;1.00;;;;;;5119805;28;20210;-83
2022/05/11 11:16:32;;;;;;;7.03;3.83;;;27.00;1.00;;;;;;5117912;28;20222;-88
2022/05/11 11:19:00;;;;;;;5.22;3.90;;;27.00;1.00;;;;;;5115398;28;20590;-84
2022/05/11 11:21:28;;;;;;;5.45;4.03;;;27.00;1.00;;;;;;5117615;28;20197;-84
2022/05/11 11:24:14;;;;;;;5.55;3.92;;;26.90;1.00;;;;;;5121805;28;20199;-84
2022/05/11 11:26:51;;;;;;;6.80;3.90;;;26.60;1.00;;;;;;5101817;28;20298;-84
2022/05/11 11:29:36;;;;;;;6.00;4.22;;;26.70;1.00;;;;;;5110423;28;20186;-86
2022/05/11 11:32:14;;;;;;;8.18;4.38;;;26.70;1.00;;;;;;5114478;28;20198;-84
2022/05/11 11:34:43;;;;;;;6.47;4.55;;;26.70;1.00;;;;;;5117392;28;20195;-85
2022/05/11 11:37:36;;;;;;;9.48;5.03;;;26.80;1.00;;;;;;5117718;28;20230;-85
2022/05/11 11:40:21;;;;;;;5.85;4.55;;;26.80;1.00;;;;;;5113985;28;20186;-84
2022/05/11 11:42:50;;;;;;;6.70;4.80;;;26.80;1.00;;;;;;5116022;28;20183;-84
2022/05/11 11:46:05;;;;;;;6.30;4.90;;;26.90;1.00;;;;;;5114159;28;20230;-84
2022/05/11 11:48:45;;;;;;;9.65;5.53;;;26.90;1.00;;;;;;5119158;28;20202;-85
2022/05/11 11:51:31;;;;;;;7.70;5.20;;;27.00;1.00;;;;;;5114405;28;20194;-85
2022/05/11 11:53:58;;;;;;;7.03;5.35;;;27.00;1.00;;;;;;5118373;28;20229;-85
2022/05/11 11:56:47;;;;;;;8.88;5.43;;;27.00;1.00;;;;;;5097329;28;20215;-84
2022/05/11 11:59:35;;;;;;;6.40;5.63;;;27.10;1.00;;;;;;5093258;28;20188;-87
2022/05/11 12:02:13;;;;;;;7.57;5.60;;;27.20;1.00;;;;;;5093560;28;20168;-82
2022/05/11 12:04:45;;;;;;;8.23;5.78;;;27.20;1.00;;;;;;5093482;28;20614;-82
2022/05/11 12:15:35;;;;;;;8.30;6.40;;;27.50;1.00;;;;;;5088751;28;20219;-85
2022/05/11 12:18:03;;;;;;;13.18;6.65;;;27.40;1.00;;;;;;5097362;28;20231;-82
2022/05/11 12:20:42;;;;;;;6.68;5.80;;;27.50;1.00;;;;;;5093089;28;20282;-84
2022/05/11 12:23:24;;;;;;;6.72;6.00;;;27.60;1.00;;;;;;5094707;28;20225;-85
2022/05/11 12:25:54;;;;;;;9.07;6.68;;;27.70;1.00;;;;;;5118489;28;20174;-84
2022/05/11 12:28:23;;;;;;;9.00;6.57;;;27.70;1.00;;;;;;5113587;28;20247;-83
2022/05/11 12:30:52;;;;;;;7.43;6.70;;;27.90;1.00;;;;;;5113313;28;20191;-85
2022/05/11 12:33:25;;;;;;;8.85;6.45;;;28.00;1.00;;;;;;5108242;28;20275;-83
2022/05/11 12:35:53;;;;;;;7.25;6.28;;;28.20;1.00;;;;;;5094466;28;20203;-89
2022/05/11 12:38:29;;;;;;;6.97;6.20;;;28.30;1.00;;;;;;5092825;28;20202;-82
2022/05/11 12:40:57;;;;;;;7.65;6.40;;;28.50;1.00;;;;;;5097258;28;20062;-83
2022/05/11 12:43:27;;;;;;;8.85;5.93;;;28.50;1.00;;;;;;5104320;28;20192;-83
2022/05/11 12:45:57;;;;;;;10.40;5.85;;;28.50;1.00;;;;;;5095712;28;20190;-86
2022/05/11 12:48:31;;;;;;;8.07;6.38;;;28.60;1.00;;;;;;5093035;28;20705;-83
2022/05/11 12:51:03;;;;;;;8.80;5.90;;;28.80;1.00;;;;;;5094042;28;20183;-86
2022/05/11 12:53:32;;;;;;;6.88;5.93;;;29.00;1.00;;;;;;5096204;28;20220;-84
2022/05/11 12:56:15;;;;;;;6.40;5.60;;;29.20;1.00;;;;;;5093264;28;20302;-91
2022/05/11 12:58:45;;;;;;;7.00;5.35;;;29.20;1.00;;;;;;5092429;28;20280;-84
2022/05/11 13:01:16;;;;;;;7.53;5.63;;;29.30;1.00;;;;;;5092789;28;20205;-83
2022/05/11 13:03:45;;;;;;;8.05;5.68;;;29.30;1.00;;;;;;5092264;28;20637;-83
2022/05/11 13:06:20;;;;;;;7.38;5.80;;;29.20;1.00;;;;;;5093614;28;20278;-83
2022/05/11 13:09:00;;;;;;;8.63;5.10;;;29.00;1.00;;;;;;5093906;28;20298;-86
2022/05/11 13:11:29;;;;;;;6.93;5.20;;;28.90;1.00;;;;;;5093285;28;20660;-84
2022/05/11 13:13:58;;;;;;;7.07;5.20;;;29.00;1.00;;;;;;5093543;28;20283;-84
2022/05/11 13:16:31;;;;;;;5.20;4.80;;;29.10;1.00;;;;;;5098901;28;20237;-84
2022/05/11 13:19:08;;;;;;;7.95;4.70;;;29.20;1.00;;;;;;5112965;28;20203;-85
2022/05/11 13:21:46;;;;;;;7.40;5.00;;;29.10;1.00;;;;;;5115307;28;20179;-85
2022/05/11 13:24:13;;;;;;;7.85;4.80;;;29.00;1.00;;;;;;5111264;28;20651;-85
2022/05/11 13:26:43;;;;;;;6.75;4.85;;;28.80;1.00;;;;;;5111730;28;20191;-87
2022/05/11 13:29:28;;;;;;;5.97;4.78;;;28.70;1.00;;;;;;5113887;28;20191;-85
2022/05/11 13:32:06;;;;;;;5.18;4.68;;;28.80;1.00;;;;;;5114149;28;20206;-86
2022/05/11 13:34:35;;;;;;;5.90;4.68;;;28.70;1.00;;;;;;5112532;28;20210;-87
2022/05/11 13:37:03;;;;;;;7.63;4.30;;;28.70;1.00;;;;;;5116351;28;20617;-86
2022/05/11 13:39:34;;;;;;;8.18;4.55;;;28.60;1.00;;;;;;5111523;28;20186;-89
2022/05/11 13:42:04;;;;;;;7.82;4.50;;;28.70;1.00;;;;;;5118769;28;20226;-92
2022/05/11 13:44:37;;;;;;;6.18;5.05;;;28.80;1.00;;;;;;5121163;28;20191;-89
2022/05/11 13:50:29;;;;;;;6.25;4.82;;;28.60;1.00;;;;;;5111884;28;20264;-86
2022/05/11 13:52:59;;;;;;;6.60;4.82;;;28.30;1.00;;;;;;5098339;28;20564;-85
2022/05/11 13:55:31;;;;;;;8.55;4.50;;;28.00;1.00;;;;;;5111426;28;20260;-88
2022/05/11 13:58:22;;;;;;;6.22;4.47;;;27.90;1.00;;;;;;5112121;28;20666;-86
2022/05/11 14:00:49;;;;;;;6.20;4.50;;;27.90;1.00;;;;;;5111132;28;20244;-85
2022/05/11 14:03:20;;;;;;;5.15;4.20;;;28.10;1.00;;;;;;5115681;28;20274;-87
2022/05/11 14:05:50;;;;;;;10.25;5.03;;;28.30;1.00;;;;;;5119064;28;20222;-87
2022/05/11 14:08:17;;;;;;;5.55;4.60;;;28.50;1.00;;;;;;5113646;28;20233;-85
2022/05/11 14:10:44;;;;;;;6.57;4.80;;;28.50;1.00;;;;;;5112461;28;20183;-89
2022/05/11 14:13:11;;;;;;;6.75;4.53;;;28.30;1.00;;;;;;5114526;28;20327;-87
2022/05/11 14:15:37;;;;;;;5.82;4.55;;;28.20;1.00;;;;;;5119102;28;20234;-85